Galicia — ECEC — position and weather

sailwx.info

Track history (hours):
 
Tides and Currents Weather Stations Pressure Air Temp Water Temp Dewpoint Dewpoint Depression Visibility Wind Speed Wind Dir Waves Ship Positions

Galicia

Last reported at 2014-Oct-31 10:28 UTC. Time now 2014-Oct-31 10:43 UTC.
Position N 51°19' E 003°14'.

Length 149 m; draft 5.3 m.

Type: Cargo ship. MMSI: 224548000.

Date/timePositionNaut miles runAvg speedWind from/ knotsBaromVisibWave heightAir tempDewpointWater temp
2014-Oct-31 10:28N 51°19' E 003°14'0 0.0
2014-Oct-31 09:28N 51°19' E 003°14'0 0.0
2014-Oct-31 08:25N 51°19' E 003°14'0 0.0
2014-Oct-31 06:22N 51°19' E 003°14'0 0.0
2014-Oct-31 02:28N 51°19' E 003°14'0 0.0
2014-Oct-31 01:22N 51°19' E 003°14'0 0.0
2014-Oct-31 00:13N 51°19' E 003°14'0 0.0
2014-Oct-30 23:31N 51°19' E 003°14'0 0.0
2014-Oct-30 20:28N 51°19' E 003°14'0 0.0
2014-Oct-30 19:33N 51°19' E 003°14'2 1.6
2014-Oct-30 18:33N 51°20' E 003°13'9 9.3
2014-Oct-30 17:33N 51°23' E 002°59'1111.2
2014-Oct-30 16:33N 51°26' E 002°42'9 9.2
2014-Oct-30 15:32N 51°36' E 002°43'5513.8
2014-Oct-30 11:33N 52°28' E 002°13'1716.2
2014-Oct-30 10:31N 52°43' E 002°03'1516.1
2014-Oct-30 09:33N 52°53' E 001°43'1515.2
2014-Oct-30 08:33N 53°03' E 001°24'4714.7
2014-Oct-30 05:21N 53°44' E 000°45'1214.3
2014-Oct-30 04:33N 53°54' E 000°35'1414.0
2014-Oct-30 03:33N 54°05' E 000°19'1413.7
2014-Oct-30 02:34N 54°15' E 000°03'1413.7
2014-Oct-30 01:34N 54°24' W 000°14'1413.6
2014-Oct-30 00:34N 54°33' W 000°31'1413.8
2014-Oct-29 23:33N 54°43' W 000°48'1414.4
2014-Oct-29 22:33N 54°53' W 001°06'13 0.8
2014-Oct-29 06:18N 55°01' W 001°25'5 6.8
2014-Oct-29 05:34N 54°59' W 001°17'9 8.9
2014-Oct-29 04:33N 54°53' W 001°06'9 9.2
2014-Oct-29 03:33N 54°47' W 000°54'10 9.6
2014-Oct-29 02:33N 54°40' W 000°42'1010.1
2014-Oct-29 01:33N 54°33' W 000°30'1010.5
2014-Oct-29 00:33N 54°26' W 000°17'1010.3
2014-Oct-28 23:33N 54°19' W 000°04'1010.0
2014-Oct-28 22:33N 54°12' E 000°09'9 9.2
2014-Oct-28 21:33N 54°05' E 000°19'8 8.5
2014-Oct-28 20:33N 53°59' E 000°30'9 8.3
2014-Oct-28 19:32N 53°52' E 000°37'39 9.1
2014-Oct-28 15:14N 53°18' E 001°10'811.5
2014-Oct-28 14:33N 53°11' E 001°17'1111.0
2014-Oct-28 13:33N 53°02' E 001°26'10 9.9
2014-Oct-28 12:33N 52°55' E 001°37'9 8.5
2014-Oct-28 11:33N 52°50' E 001°49'8 7.5
2014-Oct-28 10:33N 52°45' E 001°59'7 6.5
2014-Oct-28 09:32N 52°39' E 002°03'8 8.2
2014-Oct-28 08:33N 52°31' E 002°01'10 9.7
2014-Oct-28 07:33N 52°22' E 001°57'1110.9
2014-Oct-28 06:33N 52°11' E 001°54'1212.0
2014-Oct-28 05:34N 51°59' E 001°50'1212.1
2014-Oct-28 04:33N 51°47' E 001°49'1211.6
2014-Oct-28 03:34N 51°36' E 001°49'1211.8
2014-Oct-28 02:33N 51°24' E 001°45'1212.1
2014-Oct-28 01:33N 51°13' E 001°38'10 9.5
2014-Oct-28 00:33N 51°03' E 001°37'1111.1
2014-Oct-27 23:33N 50°54' E 001°28'10 9.9
2014-Oct-27 22:33N 50°45' E 001°22'9 9.3
2014-Oct-27 21:32N 50°38' E 001°12'35 8.9
2014-Oct-27 17:33N 50°23' E 000°21'  
2014-Oct-24 20:31N 38°39' W 009°50'18 9.4
2014-Oct-24 18:33N 38°21' W 009°45'10 9.9
2014-Oct-24 17:33N 38°12' W 009°42'10 9.7
2014-Oct-24 16:33N 38°02' W 009°39'9 9.5
2014-Oct-24 15:33N 37°53' W 009°36'10 9.6
2014-Oct-24 14:33N 37°44' W 009°33'10 9.7
2014-Oct-24 13:33N 37°34' W 009°30'10 9.7
2014-Oct-24 12:33N 37°25' W 009°28'10 9.7
2014-Oct-24 11:33N 37°15' W 009°25'10 9.6
2014-Oct-24 10:33N 37°06' W 009°23'10 9.6
2014-Oct-24 09:33N 36°56' W 009°20'22 8.8
2014-Oct-24 07:06N 36°42' W 008°59'5 9.9
2014-Oct-24 06:33N 36°41' W 008°53'10 9.9
2014-Oct-24 05:33N 36°38' W 008°41'10 9.9
2014-Oct-24 04:33N 36°35' W 008°30'10 9.9
2014-Oct-24 03:33N 36°31' W 008°18'135 9.6
2014-Oct-23 13:32N 35°58' W 005°35'9 9.0
2014-Oct-23 12:31N 36°00' W 005°25'8 8.3
2014-Oct-23 11:33N 36°03' W 005°16'219 9.9
2014-Oct-22 13:29N 37°17' W 000°58'1011.0
2014-Oct-22 12:33N 37°24' W 000°49'1111.1
2014-Oct-22 11:32N 37°31' W 000°38'1110.9
2014-Oct-22 10:33N 37°40' W 000°29'1211.2
2014-Oct-22 09:31N 37°49' W 000°21'1415.2
2014-Oct-22 08:33N 38°01' W 000°11'16516.3
2014-Oct-21 22:25N 40°25' E 001°34'  
Track history (hours):
 
Tides and Currents Weather Stations Pressure Air Temp Water Temp Dewpoint Dewpoint Depression Visibility Wind Speed Wind Dir Waves Ship Positions

Galicia

Last reported at 2014-Oct-31 10:28 UTC. Time now 2014-Oct-31 10:43 UTC.
Position N 51°19' E 003°14'.

Length 149 m; draft 5.3 m.

Type: Cargo ship. MMSI: 224548000.

Date/timePositionNaut miles runAvg speedWind from/ knotsBaromVisibWave heightAir tempDewpointWater temp
2014-Oct-31 10:28N 51°19' E 003°14'0 0.0
2014-Oct-31 09:28N 51°19' E 003°14'0 0.0
2014-Oct-31 08:25N 51°19' E 003°14'0 0.0
2014-Oct-31 06:22N 51°19' E 003°14'0 0.0
2014-Oct-31 02:28N 51°19' E 003°14'0 0.0
2014-Oct-31 01:22N 51°19' E 003°14'0 0.0
2014-Oct-31 00:13N 51°19' E 003°14'0 0.0
2014-Oct-30 23:31N 51°19' E 003°14'0 0.0
2014-Oct-30 20:28N 51°19' E 003°14'0 0.0
2014-Oct-30 19:33N 51°19' E 003°14'2 1.6
2014-Oct-30 18:33N 51°20' E 003°13'9 9.3
2014-Oct-30 17:33N 51°23' E 002°59'1111.2
2014-Oct-30 16:33N 51°26' E 002°42'9 9.2
2014-Oct-30 15:32N 51°36' E 002°43'5513.8
2014-Oct-30 11:33N 52°28' E 002°13'1716.2
2014-Oct-30 10:31N 52°43' E 002°03'1516.1
2014-Oct-30 09:33N 52°53' E 001°43'1515.2
2014-Oct-30 08:33N 53°03' E 001°24'4714.7
2014-Oct-30 05:21N 53°44' E 000°45'1214.3
2014-Oct-30 04:33N 53°54' E 000°35'1414.0
2014-Oct-30 03:33N 54°05' E 000°19'1413.7
2014-Oct-30 02:34N 54°15' E 000°03'1413.7
2014-Oct-30 01:34N 54°24' W 000°14'1413.6
2014-Oct-30 00:34N 54°33' W 000°31'1413.8
2014-Oct-29 23:33N 54°43' W 000°48'1414.4
2014-Oct-29 22:33N 54°53' W 001°06'13 0.8
2014-Oct-29 06:18N 55°01' W 001°25'5 6.8
2014-Oct-29 05:34N 54°59' W 001°17'9 8.9
2014-Oct-29 04:33N 54°53' W 001°06'9 9.2
2014-Oct-29 03:33N 54°47' W 000°54'10 9.6
2014-Oct-29 02:33N 54°40' W 000°42'1010.1
2014-Oct-29 01:33N 54°33' W 000°30'1010.5
2014-Oct-29 00:33N 54°26' W 000°17'1010.3
2014-Oct-28 23:33N 54°19' W 000°04'1010.0
2014-Oct-28 22:33N 54°12' E 000°09'9 9.2
2014-Oct-28 21:33N 54°05' E 000°19'8 8.5
2014-Oct-28 20:33N 53°59' E 000°30'9 8.3
2014-Oct-28 19:32N 53°52' E 000°37'39 9.1
2014-Oct-28 15:14N 53°18' E 001°10'811.5
2014-Oct-28 14:33N 53°11' E 001°17'1111.0
2014-Oct-28 13:33N 53°02' E 001°26'10 9.9
2014-Oct-28 12:33N 52°55' E 001°37'9 8.5
2014-Oct-28 11:33N 52°50' E 001°49'8 7.5
2014-Oct-28 10:33N 52°45' E 001°59'7 6.5
2014-Oct-28 09:32N 52°39' E 002°03'8 8.2
2014-Oct-28 08:33N 52°31' E 002°01'10 9.7
2014-Oct-28 07:33N 52°22' E 001°57'1110.9
2014-Oct-28 06:33N 52°11' E 001°54'1212.0
2014-Oct-28 05:34N 51°59' E 001°50'1212.1
2014-Oct-28 04:33N 51°47' E 001°49'1211.6
2014-Oct-28 03:34N 51°36' E 001°49'1211.8
2014-Oct-28 02:33N 51°24' E 001°45'1212.1
2014-Oct-28 01:33N 51°13' E 001°38'10 9.5
2014-Oct-28 00:33N 51°03' E 001°37'1111.1
2014-Oct-27 23:33N 50°54' E 001°28'10 9.9
2014-Oct-27 22:33N 50°45' E 001°22'9 9.3
2014-Oct-27 21:32N 50°38' E 001°12'35 8.9
2014-Oct-27 17:33N 50°23' E 000°21'  
2014-Oct-24 20:31N 38°39' W 009°50'18 9.4
2014-Oct-24 18:33N 38°21' W 009°45'10 9.9
2014-Oct-24 17:33N 38°12' W 009°42'10 9.7
2014-Oct-24 16:33N 38°02' W 009°39'9 9.5
2014-Oct-24 15:33N 37°53' W 009°36'10 9.6
2014-Oct-24 14:33N 37°44' W 009°33'10 9.7
2014-Oct-24 13:33N 37°34' W 009°30'10 9.7
2014-Oct-24 12:33N 37°25' W 009°28'10 9.7
2014-Oct-24 11:33N 37°15' W 009°25'10 9.6
2014-Oct-24 10:33N 37°06' W 009°23'10 9.6
2014-Oct-24 09:33N 36°56' W 009°20'22 8.8
2014-Oct-24 07:06N 36°42' W 008°59'5 9.9
2014-Oct-24 06:33N 36°41' W 008°53'10 9.9
2014-Oct-24 05:33N 36°38' W 008°41'10 9.9
2014-Oct-24 04:33N 36°35' W 008°30'10 9.9
2014-Oct-24 03:33N 36°31' W 008°18'135 9.6
2014-Oct-23 13:32N 35°58' W 005°35'9 9.0
2014-Oct-23 12:31N 36°00' W 005°25'8 8.3
2014-Oct-23 11:33N 36°03' W 005°16'219 9.9
2014-Oct-22 13:29N 37°17' W 000°58'1011.0
2014-Oct-22 12:33N 37°24' W 000°49'1111.1
2014-Oct-22 11:32N 37°31' W 000°38'1110.9
2014-Oct-22 10:33N 37°40' W 000°29'1211.2
2014-Oct-22 09:31N 37°49' W 000°21'1415.2
2014-Oct-22 08:33N 38°01' W 000°11'16516.3
2014-Oct-21 22:25N 40°25' E 001°34'  

Dump ship's entire track history